Time;durP1;ratioP1;P1;durP2;ratioP2;P2;SDS_P1;SDS_P2;PMS_P1;PMS_P2;Temp;Humidity;BMP_temperature;BMP_pressure;BME280_temperature;BME280_humidity;BME280_pressure;Samples;Min_cycle;Max_cycle;Signal;HPM_P1;HPM_P2
2022/04/09 00:01:11;;;;;;;0.00;0.00;;;3.90;99.90;;;;;;5018878;28;20041;-65
2022/04/09 00:03:36;;;;;;;0.00;0.00;;;3.90;99.90;;;;;;5029639;28;20937;-65
2022/04/09 00:06:03;;;;;;;0.00;0.00;;;3.90;99.90;;;;;;5020627;28;20369;-65
2022/04/09 00:08:29;;;;;;;0.00;0.00;;;3.80;99.90;;;;;;5020844;28;20053;-65
2022/04/09 00:10:55;;;;;;;0.00;0.00;;;3.70;99.90;;;;;;5020597;28;20045;-66
2022/04/09 00:13:21;;;;;;;0.00;0.00;;;3.70;99.90;;;;;;5021268;28;20053;-65
2022/04/09 00:15:46;;;;;;;0.00;0.00;;;3.70;99.90;;;;;;5020935;28;20115;-64
2022/04/09 00:18:16;;;;;;;0.00;0.00;;;3.60;99.90;;;;;;5020390;28;20446;-65
2022/04/09 00:20:41;;;;;;;0.00;0.00;;;3.70;99.90;;;;;;5019807;28;20045;-65
2022/04/09 00:23:10;;;;;;;0.00;0.00;;;3.70;99.90;;;;;;5024469;28;20052;-64
2022/04/09 00:25:36;;;;;;;0.00;0.00;;;3.70;99.90;;;;;;5039485;28;20404;-65
2022/04/09 00:28:02;;;;;;;0.00;0.00;;;3.70;99.90;;;;;;5024783;28;20779;-65
2022/04/09 00:30:27;;;;;;;0.00;0.00;;;3.70;99.90;;;;;;5024466;28;20037;-65
2022/04/09 00:32:53;;;;;;;0.00;0.00;;;3.60;99.90;;;;;;5024421;28;20046;-64
2022/04/09 00:35:19;;;;;;;0.00;0.00;;;3.60;99.90;;;;;;5023215;28;20048;-64
2022/04/09 00:37:46;;;;;;;0.00;0.00;;;3.60;99.90;;;;;;5039036;28;20084;-62
2022/04/09 00:40:15;;;;;;;0.00;0.00;;;3.70;99.90;;;;;;5024776;28;20457;-64
2022/04/09 00:42:43;;;;;;;0.00;0.00;;;3.60;99.90;;;;;;5023483;28;20496;-66
2022/04/09 00:45:10;;;;;;;0.00;0.00;;;3.70;99.90;;;;;;5024422;28;20045;-66
2022/04/09 00:47:36;;;;;;;0.00;0.00;;;3.60;99.90;;;;;;5023741;28;20488;-66
2022/04/09 00:50:06;;;;;;;0.00;0.00;;;3.60;99.90;;;;;;5023178;28;20041;-66
2022/04/09 00:52:38;;;;;;;0.00;0.00;;;3.60;99.90;;;;;;5024536;28;20045;-65
2022/04/09 00:55:05;;;;;;;0.00;0.00;;;3.60;99.90;;;;;;5024353;28;20045;-66
2022/04/09 00:57:35;;;;;;;0.00;0.00;;;3.60;99.90;;;;;;5023907;28;20041;-65
2022/04/09 01:00:09;;;;;;;0.00;0.00;;;3.60;99.90;;;;;;5022929;28;20196;-64
2022/04/09 01:02:44;;;;;;;0.00;0.00;;;3.50;99.90;;;;;;5033423;28;20052;-64
2022/04/09 01:05:11;;;;;;;0.00;0.00;;;3.50;99.90;;;;;;5021641;28;20075;-65
2022/04/09 01:07:37;;;;;;;0.00;0.00;;;3.60;99.90;;;;;;5023424;28;20056;-64
2022/04/09 01:10:04;;;;;;;0.00;0.00;;;3.60;99.90;;;;;;5023382;28;20522;-63
2022/04/09 01:12:31;;;;;;;0.00;0.00;;;3.60;99.90;;;;;;5023769;28;20152;-64
2022/04/09 01:14:57;;;;;;;0.00;0.00;;;3.70;99.90;;;;;;5037110;22;20107;-64
2022/04/09 01:17:23;;;;;;;0.00;0.00;;;3.70;99.90;;;;;;5031858;28;20049;-64
2022/04/09 01:19:48;;;;;;;0.00;0.00;;;3.70;99.90;;;;;;5022926;28;20507;-64
2022/04/09 01:22:14;;;;;;;0.00;0.00;;;3.70;99.90;;;;;;5023237;28;20050;-66
2022/04/09 01:24:40;;;;;;;0.00;0.00;;;3.70;99.90;;;;;;5023246;28;20125;-63
2022/04/09 01:27:05;;;;;;;0.00;0.00;;;3.70;99.90;;;;;;5023783;28;20049;-64
2022/04/09 01:29:31;;;;;;;0.00;0.00;;;3.70;99.90;;;;;;5022004;28;20764;-66
2022/04/09 01:31:56;;;;;;;0.00;0.00;;;3.70;99.90;;;;;;5023351;28;20056;-63
2022/04/09 01:34:22;;;;;;;0.00;0.00;;;3.70;99.90;;;;;;5022410;28;20049;-64
2022/04/09 01:36:48;;;;;;;0.00;0.00;;;3.60;99.90;;;;;;5023304;28;20061;-66
2022/04/09 01:39:17;;;;;;;0.00;0.00;;;3.60;99.90;;;;;;5023053;28;20064;-66
2022/04/09 01:41:45;;;;;;;0.00;0.00;;;3.60;99.90;;;;;;5023473;28;20068;-66
2022/04/09 01:44:11;;;;;;;0.00;0.00;;;3.60;99.90;;;;;;5023585;28;20088;-67
2022/04/09 01:46:37;;;;;;;0.00;0.00;;;3.50;99.90;;;;;;5022486;28;20333;-67
2022/04/09 01:49:04;;;;;;;0.00;0.00;;;3.60;99.90;;;;;;5021484;28;20041;-67
2022/04/09 01:51:29;;;;;;;0.00;0.00;;;3.50;99.90;;;;;;5023539;28;20049;-66
2022/04/09 01:53:55;;;;;;;0.00;0.00;;;3.50;99.90;;;;;;5022500;28;20076;-66
2022/04/09 01:56:21;;;;;;;0.00;0.00;;;3.50;99.90;;;;;;5022498;28;20128;-66
2022/04/09 01:58:46;;;;;;;0.00;0.00;;;3.50;99.90;;;;;;5023261;28;20124;-66
2022/04/09 02:01:16;;;;;;;0.00;0.00;;;3.50;99.90;;;;;;5025362;28;20263;-66
2022/04/09 02:03:42;;;;;;;0.00;0.00;;;3.50;99.90;;;;;;5032263;28;20052;-66
2022/04/09 02:06:08;;;;;;;0.00;0.00;;;3.40;99.90;;;;;;5042726;28;20094;-66
2022/04/09 02:08:34;;;;;;;0.00;0.00;;;3.40;99.90;;;;;;5043241;28;20045;-66
2022/04/09 02:11:00;;;;;;;0.00;0.00;;;3.40;99.90;;;;;;5042367;28;20068;-67
2022/04/09 02:13:25;;;;;;;0.00;0.00;;;3.40;99.90;;;;;;5040678;28;20211;-66
2022/04/09 02:15:51;;;;;;;0.00;0.00;;;3.50;99.90;;;;;;5040821;28;20049;-66
2022/04/09 02:18:17;;;;;;;0.00;0.00;;;3.50;99.90;;;;;;5042652;28;20127;-66
2022/04/09 02:20:42;;;;;;;0.00;0.00;;;3.60;99.90;;;;;;5040919;28;20041;-66
2022/04/09 02:23:08;;;;;;;0.00;0.00;;;3.70;99.90;;;;;;5042424;28;20045;-66
2022/04/09 02:25:33;;;;;;;0.00;0.00;;;3.70;99.90;;;;;;5042604;28;20511;-66
2022/04/09 02:27:59;;;;;;;0.00;0.00;;;3.70;99.90;;;;;;5041923;28;20056;-66
2022/04/09 02:30:24;;;;;;;0.00;0.00;;;3.60;99.90;;;;;;5042006;28;20507;-65
2022/04/09 02:32:52;;;;;;;0.00;0.00;;;3.60;99.90;;;;;;5041942;28;20033;-65
2022/04/09 02:35:19;;;;;;;0.00;0.00;;;3.50;99.90;;;;;;5041540;28;20430;-65
2022/04/09 02:37:45;;;;;;;0.00;0.00;;;3.40;99.90;;;;;;5041578;28;20135;-65
2022/04/09 02:40:11;;;;;;;0.00;0.00;;;3.40;99.90;;;;;;5042223;28;20907;-66
2022/04/09 02:42:39;;;;;;;0.00;0.00;;;3.40;99.90;;;;;;5041861;28;20040;-65
2022/04/09 02:45:05;;;;;;;0.00;0.00;;;3.30;99.90;;;;;;5041353;28;20052;-65
2022/04/09 02:47:32;;;;;;;0.00;0.00;;;3.20;99.90;;;;;;5042240;28;20464;-66
2022/04/09 02:49:59;;;;;;;0.00;0.00;;;3.10;99.90;;;;;;5039393;28;20095;-66
2022/04/09 02:52:27;;;;;;;0.00;0.00;;;3.10;99.90;;;;;;5041911;28;20040;-65
2022/04/09 02:54:53;;;;;;;0.00;0.00;;;3.10;99.90;;;;;;5040815;28;20044;-66
2022/04/09 02:57:19;;;;;;;0.00;0.00;;;3.10;99.90;;;;;;5042165;28;20095;-65
2022/04/09 02:59:45;;;;;;;0.00;0.00;;;3.00;99.90;;;;;;5040350;28;20515;-62
2022/04/09 03:02:11;;;;;;;0.00;0.00;;;3.10;99.90;;;;;;5035394;28;20041;-65
2022/04/09 03:04:36;;;;;;;0.00;0.00;;;3.00;99.90;;;;;;5021571;28;20048;-66
2022/04/09 03:07:02;;;;;;;0.00;0.00;;;3.10;99.90;;;;;;5021984;28;20128;-65
2022/04/09 03:09:28;;;;;;;0.00;0.00;;;3.10;99.90;;;;;;5021735;28;20048;-65
2022/04/09 03:11:53;;;;;;;0.00;0.00;;;3.10;99.90;;;;;;5036388;28;20042;-65
2022/04/09 03:14:20;;;;;;;0.00;0.00;;;3.10;99.90;;;;;;5021553;28;20056;-65
2022/04/09 03:16:45;;;;;;;0.00;0.00;;;3.10;99.90;;;;;;5021444;28;20057;-65
2022/04/09 03:19:11;;;;;;;0.00;0.00;;;3.10;99.90;;;;;;5021278;28;20103;-66
2022/04/09 03:21:37;;;;;;;0.00;0.00;;;3.10;99.90;;;;;;5020734;28;20758;-65
2022/04/09 03:24:02;;;;;;;0.00;0.00;;;3.10;99.90;;;;;;5020148;28;20045;-65
2022/04/09 03:26:28;;;;;;;0.00;0.00;;;3.10;99.90;;;;;;5021727;28;20408;-65
2022/04/09 03:28:54;;;;;;;0.00;0.00;;;3.10;99.90;;;;;;5021062;28;20046;-66
2022/04/09 03:31:19;;;;;;;0.00;0.00;;;3.10;99.90;;;;;;5036586;28;20033;-65
2022/04/09 03:33:47;;;;;;;0.00;0.00;;;3.00;99.90;;;;;;5035882;28;20076;-65
2022/04/09 03:36:13;;;;;;;0.00;0.00;;;3.10;99.90;;;;;;5021804;28;20112;-65
2022/04/09 03:38:41;;;;;;;0.00;0.00;;;3.10;99.90;;;;;;5020508;28;20404;-65
2022/04/09 03:41:07;;;;;;;0.00;0.00;;;3.10;99.90;;;;;;5036880;28;20057;-65
2022/04/09 03:43:32;;;;;;;0.00;0.00;;;3.20;99.90;;;;;;5022028;28;20260;-65
2022/04/09 03:45:58;;;;;;;0.00;0.00;;;3.20;99.90;;;;;;5020724;28;20579;-65
2022/04/09 03:48:23;;;;;;;0.00;0.00;;;3.20;99.90;;;;;;5020686;28;20150;-65
2022/04/09 03:50:49;;;;;;;0.00;0.00;;;3.20;99.90;;;;;;5020889;28;20046;-65
2022/04/09 03:53:19;;;;;;;0.00;0.00;;;3.30;99.90;;;;;;5021399;28;20052;-65
2022/04/09 03:55:47;;;;;;;0.00;0.00;;;3.30;99.90;;;;;;5020610;28;20046;-65
2022/04/09 03:58:16;;;;;;;0.00;0.00;;;3.30;99.90;;;;;;5025330;28;20089;-65
2022/04/09 04:00:42;;;;;;;0.00;0.00;;;2.20;99.90;;;;;;5027165;28;20058;-65
2022/04/09 04:03:09;;;;;;;0.00;0.00;;;3.10;99.90;;;;;;5032618;28;20045;-65
2022/04/09 04:05:36;;;;;;;0.00;0.00;;;2.90;99.90;;;;;;5024669;28;20049;-65
2022/04/09 04:08:06;;;;;;;0.00;0.00;;;3.00;99.90;;;;;;5025181;28;20046;-65
2022/04/09 04:10:37;;;;;;;0.00;0.00;;;2.90;99.90;;;;;;5039898;28;20556;-65
2022/04/09 04:13:03;;;;;;;0.00;0.00;;;2.90;99.90;;;;;;5024916;28;20135;-65
2022/04/09 04:15:29;;;;;;;0.00;0.00;;;2.90;99.90;;;;;;5024918;28;20509;-65
2022/04/09 04:17:55;;;;;;;0.10;0.10;;;2.90;99.90;;;;;;5024696;28;20048;-65
2022/04/09 04:20:21;;;;;;;0.00;0.00;;;2.90;99.90;;;;;;5023368;28;20037;-65
2022/04/09 04:22:47;;;;;;;0.00;0.00;;;3.00;99.90;;;;;;5024419;28;20128;-65
2022/04/09 04:25:12;;;;;;;0.00;0.00;;;3.00;99.90;;;;;;5024952;28;20169;-65
2022/04/09 04:27:46;;;;;;;0.00;0.00;;;3.00;99.90;;;;;;5023926;28;20458;-65
2022/04/09 04:30:13;;;;;;;0.00;0.00;;;3.00;99.90;;;;;;5023405;28;20042;-65
2022/04/09 04:32:39;;;;;;;0.00;0.00;;;2.90;99.90;;;;;;5024490;28;20627;-65
2022/04/09 04:35:05;;;;;;;0.00;0.00;;;2.90;99.90;;;;;;5023494;28;20045;-65
2022/04/09 04:37:39;;;;;;;0.00;0.00;;;2.90;99.90;;;;;;5025014;28;20064;-66
2022/04/09 04:40:06;;;;;;;0.00;0.00;;;2.90;99.90;;;;;;5024999;28;20124;-60
2022/04/09 04:42:32;;;;;;;0.00;0.00;;;2.90;99.90;;;;;;5024109;28;20112;-65
2022/04/09 04:44:57;;;;;;;0.00;0.00;;;2.80;99.90;;;;;;5023749;28;20042;-65
2022/04/09 04:47:23;;;;;;;0.00;0.00;;;2.80;99.90;;;;;;5024255;28;20104;-64
2022/04/09 04:49:48;;;;;;;0.00;0.00;;;2.80;99.90;;;;;;5022959;28;20061;-65
2022/04/09 04:52:14;;;;;;;0.00;0.00;;;2.80;99.90;;;;;;5023692;28;20050;-66
2022/04/09 04:54:40;;;;;;;0.00;0.00;;;2.80;99.90;;;;;;5023859;28;20497;-61
2022/04/09 04:57:05;;;;;;;0.00;0.00;;;2.90;99.90;;;;;;5024416;28;20037;-64
2022/04/09 04:59:31;;;;;;;0.00;0.00;;;2.90;99.90;;;;;;5024549;28;20041;-64
2022/04/09 05:01:57;;;;;;;0.00;0.00;;;2.90;99.90;;;;;;5031614;28;20072;-64
2022/04/09 05:04:25;;;;;;;0.00;0.00;;;2.90;99.90;;;;;;5038580;28;20045;-64
2022/04/09 05:06:51;;;;;;;0.00;0.00;;;2.90;99.90;;;;;;5022418;28;20133;-64
2022/04/09 05:09:17;;;;;;;0.00;0.00;;;2.90;99.90;;;;;;5022519;28;20048;-64
2022/04/09 05:11:43;;;;;;;0.00;0.00;;;2.90;99.90;;;;;;5023870;28;20041;-65
2022/04/09 05:14:09;;;;;;;0.00;0.00;;;2.90;99.90;;;;;;5023509;28;20061;-67
2022/04/09 05:16:34;;;;;;;0.00;0.00;;;2.90;99.90;;;;;;5024122;28;20085;-64
2022/04/09 05:19:00;;;;;;;0.00;0.00;;;2.90;99.90;;;;;;5005152;28;20115;-64
2022/04/09 05:21:26;;;;;;;0.00;0.00;;;2.90;99.90;;;;;;5023615;28;20045;-65
2022/04/09 05:23:52;;;;;;;0.00;0.00;;;3.00;99.90;;;;;;5023094;28;20048;-64
2022/04/09 05:26:17;;;;;;;0.00;0.00;;;3.00;99.90;;;;;;5023291;28;20488;-64
2022/04/09 05:28:43;;;;;;;0.00;0.00;;;3.00;99.90;;;;;;5023108;28;20426;-64
2022/04/09 05:31:13;;;;;;;0.00;0.00;;;3.00;99.90;;;;;;5023375;28;20045;-67
2022/04/09 05:33:38;;;;;;;0.00;0.00;;;3.60;99.90;;;;;;5022787;28;20059;-64
2022/04/09 05:36:05;;;;;;;0.00;0.00;;;3.10;99.90;;;;;;5021808;28;20544;-65
2022/04/09 05:38:32;;;;;;;0.00;0.00;;;3.20;99.90;;;;;;5006178;28;20141;-64
2022/04/09 05:40:58;;;;;;;0.00;0.00;;;3.40;99.90;;;;;;5021687;28;20048;-64
2022/04/09 05:43:24;;;;;;;0.00;0.00;;;3.60;99.90;;;;;;5023095;28;20045;-63
2022/04/09 05:45:50;;;;;;;0.00;0.00;;;3.80;99.90;;;;;;5021366;28;20110;-64
2022/04/09 05:48:16;;;;;;;0.00;0.00;;;3.80;99.90;;;;;;5022449;28;20477;-64
2022/04/09 05:50:41;;;;;;;0.00;0.00;;;3.70;99.90;;;;;;5021858;28;20156;-64
2022/04/09 05:53:07;;;;;;;0.00;0.00;;;3.70;99.90;;;;;;5022477;28;20055;-64
2022/04/09 05:55:32;;;;;;;0.00;0.00;;;3.60;99.90;;;;;;5023288;28;20045;-64
2022/04/09 05:57:59;;;;;;;0.00;0.00;;;3.60;99.90;;;;;;5022665;28;20554;-64
2022/04/09 06:00:25;;;;;;;0.00;0.00;;;3.60;99.90;;;;;;5022886;28;20084;-64
2022/04/09 06:02:51;;;;;;;0.00;0.00;;;3.60;99.90;;;;;;5032683;28;20120;-64
2022/04/09 06:05:17;;;;;;;1.40;1.30;;;3.60;99.90;;;;;;5023051;28;20196;-63
2022/04/09 06:07:42;;;;;;;0.00;0.00;;;3.60;99.90;;;;;;5022324;28;20048;-67
2022/04/09 06:10:10;;;;;;;0.00;0.00;;;3.70;99.90;;;;;;5021918;28;20063;-65
2022/04/09 06:12:36;;;;;;;0.00;0.00;;;4.00;99.90;;;;;;5022349;28;20072;-65
2022/04/09 06:15:03;;;;;;;0.00;0.00;;;4.20;99.90;;;;;;5032261;28;20614;-64
2022/04/09 06:17:29;;;;;;;0.00;0.00;;;4.40;99.90;;;;;;5041339;28;20037;-64
2022/04/09 06:19:55;;;;;;;0.00;0.00;;;4.70;99.90;;;;;;5040786;28;20041;-65
2022/04/09 06:22:20;;;;;;;0.00;0.00;;;4.90;99.90;;;;;;5041958;28;20045;-64
2022/04/09 06:24:46;;;;;;;0.00;0.00;;;5.30;99.90;;;;;;5041545;28;20037;-64
2022/04/09 06:27:12;;;;;;;0.00;0.00;;;5.50;99.90;;;;;;5041477;28;20131;-65
2022/04/09 06:29:37;;;;;;;0.00;0.00;;;5.80;99.90;;;;;;5041682;28;20063;-65
2022/04/09 06:32:04;;;;;;;0.00;0.00;;;6.00;99.90;;;;;;5041862;28;20411;-65
2022/04/09 06:34:30;;;;;;;0.00;0.00;;;6.10;99.90;;;;;;5041139;28;20049;-65
2022/04/09 06:36:55;;;;;;;0.00;0.00;;;6.10;99.90;;;;;;5040980;28;20044;-65
2022/04/09 06:39:23;;;;;;;0.00;0.00;;;5.80;99.90;;;;;;5041680;28;20040;-64
2022/04/09 06:41:49;;;;;;;0.00;0.00;;;5.80;99.90;;;;;;5041542;28;20045;-64
2022/04/09 06:44:15;;;;;;;0.00;0.00;;;5.50;99.90;;;;;;5040947;28;20041;-65
2022/04/09 06:46:43;;;;;;;0.00;0.00;;;5.10;99.90;;;;;;5041363;28;20130;-64
2022/04/09 06:49:11;;;;;;;0.00;0.00;;;4.90;99.90;;;;;;5041257;28;20051;-65
2022/04/09 06:51:38;;;;;;;0.00;0.00;;;4.80;99.90;;;;;;5040200;28;20037;-65
2022/04/09 06:54:04;;;;;;;0.00;0.00;;;4.90;99.90;;;;;;5041979;28;20049;-66
2022/04/09 06:56:29;;;;;;;0.00;0.00;;;5.20;99.90;;;;;;5040523;28;20382;-64
2022/04/09 06:58:55;;;;;;;0.00;0.00;;;5.60;99.90;;;;;;5041563;28;20052;-65
2022/04/09 07:01:21;;;;;;;0.00;0.00;;;5.90;99.90;;;;;;5034771;28;20496;-65
2022/04/09 07:03:46;;;;;;;0.00;0.00;;;6.20;99.90;;;;;;5029053;28;20400;-65
2022/04/09 07:06:14;;;;;;;0.00;0.00;;;6.50;99.90;;;;;;5022310;28;20033;-64
2022/04/09 07:08:40;;;;;;;0.00;0.00;;;6.40;99.90;;;;;;5021396;28;20053;-61
2022/04/09 07:11:05;;;;;;;0.00;0.00;;;6.90;99.90;;;;;;5021689;28;21113;-65
2022/04/09 07:13:31;;;;;;;0.00;0.00;;;7.50;99.90;;;;;;5022225;28;20112;-65
2022/04/09 07:15:57;;;;;;;0.00;0.00;;;7.20;99.90;;;;;;5020808;28;20064;-64
2022/04/09 07:18:23;;;;;;;0.00;0.00;;;6.60;99.90;;;;;;5020604;28;20089;-66
2022/04/09 07:20:49;;;;;;;0.00;0.00;;;6.30;99.90;;;;;;5021571;28;20042;-66
2022/04/09 07:23:14;;;;;;;0.00;0.00;;;6.20;99.90;;;;;;5020713;28;20053;-66
2022/04/09 07:25:42;;;;;;;0.95;0.85;;;6.20;99.90;;;;;;5036898;28;20039;-65
2022/04/09 07:28:08;;;;;;;0.00;0.00;;;6.40;99.90;;;;;;5041449;28;20041;-67
2022/04/09 07:30:34;;;;;;;0.00;0.00;;;6.50;99.90;;;;;;5041589;28;20044;-65
2022/04/09 07:32:59;;;;;;;0.00;0.00;;;6.80;99.90;;;;;;5044297;28;20048;-64
2022/04/09 07:35:26;;;;;;;0.00;0.00;;;7.00;99.90;;;;;;5045325;28;20049;-66
2022/04/09 07:37:58;;;;;;;0.00;0.00;;;7.10;99.90;;;;;;5045024;28;20124;-66
2022/04/09 07:40:24;;;;;;;0.00;0.00;;;7.30;99.90;;;;;;5045582;28;20044;-66
2022/04/09 07:42:51;;;;;;;0.00;0.00;;;7.10;99.90;;;;;;5044383;28;20399;-66
2022/04/09 07:45:17;;;;;;;0.00;0.00;;;7.00;99.90;;;;;;5045489;28;20048;-66
2022/04/09 07:47:44;;;;;;;0.00;0.00;;;6.80;99.90;;;;;;5044336;28;20691;-66
2022/04/09 07:50:11;;;;;;;0.00;0.00;;;7.00;99.90;;;;;;5043899;28;20096;-66
2022/04/09 07:52:44;;;;;;;0.00;0.00;;;7.30;99.90;;;;;;5044329;28;20404;-66
2022/04/09 07:55:15;;;;;;;4.75;0.73;;;7.30;99.90;;;;;;5044884;28;20036;-66
2022/04/09 07:57:41;;;;;;;0.00;0.00;;;7.40;99.90;;;;;;5044785;28;20053;-66
2022/04/09 08:00:07;;;;;;;0.00;0.00;;;7.70;99.90;;;;;;5044145;28;20048;-66
2022/04/09 08:02:34;;;;;;;0.00;0.00;;;7.90;99.90;;;;;;5041272;28;20407;-66
2022/04/09 08:05:00;;;;;;;0.00;0.00;;;8.10;99.90;;;;;;5044862;28;20072;-66
2022/04/09 08:07:26;;;;;;;0.00;0.00;;;8.00;99.90;;;;;;5043040;28;20510;-67
2022/04/09 08:09:51;;;;;;;0.00;0.00;;;8.20;99.90;;;;;;5044706;28;20040;-66
2022/04/09 08:12:17;;;;;;;0.00;0.00;;;8.30;99.90;;;;;;5044951;28;20047;-66
2022/04/09 08:14:43;;;;;;;0.00;0.00;;;8.30;99.90;;;;;;5044272;28;20056;-67
2022/04/09 08:17:09;;;;;;;0.00;0.00;;;7.70;99.90;;;;;;5044358;28;20102;-66
2022/04/09 08:19:35;;;;;;;0.00;0.00;;;7.50;99.90;;;;;;5044321;28;20041;-66
2022/04/09 08:22:02;;;;;;;0.00;0.00;;;7.40;99.90;;;;;;5044724;28;20047;-66
2022/04/09 08:24:28;;;;;;;0.00;0.00;;;7.40;99.90;;;;;;5044426;28;20041;-66
2022/04/09 08:26:53;;;;;;;0.00;0.00;;;8.00;99.90;;;;;;5044334;28;20138;-66
2022/04/09 08:29:20;;;;;;;0.00;0.00;;;7.40;99.90;;;;;;5043271;28;20523;-66
2022/04/09 08:31:47;;;;;;;0.00;0.00;;;7.60;99.90;;;;;;5044262;28;20045;-66
2022/04/09 08:34:17;;;;;;;0.00;0.00;;;7.80;99.90;;;;;;5043403;28;20463;-66
2022/04/09 08:36:43;;;;;;;0.00;0.00;;;7.80;99.90;;;;;;5044434;28;20045;-65
2022/04/09 08:39:09;;;;;;;0.00;0.00;;;7.90;99.90;;;;;;5044148;28;20128;-66
2022/04/09 08:41:40;;;;;;;0.00;0.00;;;7.90;99.90;;;;;;5043827;28;20542;-66
2022/04/09 08:44:07;;;;;;;0.00;0.00;;;7.90;99.90;;;;;;5042727;28;20376;-66
2022/04/09 08:46:34;;;;;;;0.00;0.00;;;7.40;99.90;;;;;;5045045;28;20424;-66
2022/04/09 08:49:05;;;;;;;0.00;0.00;;;7.40;99.90;;;;;;5042667;28;20152;-65
2022/04/09 08:51:31;;;;;;;0.00;0.00;;;6.90;99.90;;;;;;5044456;28;20033;-66
2022/04/09 08:53:59;;;;;;;0.00;0.00;;;6.30;99.90;;;;;;5038944;28;20561;-66
2022/04/09 08:56:25;;;;;;;0.00;0.00;;;6.00;99.90;;;;;;5032962;28;20095;-66
2022/04/09 08:58:50;;;;;;;0.00;0.00;;;5.70;99.90;;;;;;5039401;28;20730;-66
2022/04/09 09:01:16;;;;;;;0.00;0.00;;;5.50;99.90;;;;;;5037336;28;20091;-66
2022/04/09 09:03:41;;;;;;;0.00;0.00;;;5.40;99.90;;;;;;5042719;28;20045;-65
2022/04/09 09:06:28;;;;;;;0.00;0.00;;;5.30;99.90;;;;;;5043125;28;20090;-66
2022/04/09 09:08:58;;;;;;;0.00;0.00;;;5.30;99.90;;;;;;5041862;28;20454;-66
2022/04/09 09:11:24;;;;;;;0.00;0.00;;;5.30;99.90;;;;;;5039894;28;20060;-68
2022/04/09 09:13:52;;;;;;;0.00;0.00;;;5.90;99.90;;;;;;5042644;28;20274;-65
2022/04/09 09:16:22;;;;;;;0.00;0.00;;;6.60;99.90;;;;;;5023571;28;20033;-65
2022/04/09 09:18:51;;;;;;;0.00;0.00;;;7.50;99.90;;;;;;5007657;28;20103;-65
2022/04/09 09:21:18;;;;;;;0.00;0.00;;;8.10;99.90;;;;;;5022245;28;20579;-63
2022/04/09 09:23:44;;;;;;;0.00;0.00;;;7.40;99.90;;;;;;5022898;28;20041;-63
2022/04/09 09:26:18;;;;;;;0.00;0.00;;;6.50;99.90;;;;;;5023072;28;20038;-63
2022/04/09 09:28:55;;;;;;;0.00;0.00;;;5.90;99.90;;;;;;5019400;28;20161;-63
2022/04/09 09:31:41;;;;;;;0.00;0.00;;;5.30;99.90;;;;;;5022318;28;20041;-64
2022/04/09 09:34:20;;;;;;;0.00;0.00;;;5.00;99.90;;;;;;5020872;28;20076;-64
2022/04/09 09:36:47;;;;;;;0.00;0.00;;;4.90;99.90;;;;;;5023033;28;20049;-63
2022/04/09 09:39:17;;;;;;;0.00;0.00;;;4.80;99.90;;;;;;5022950;28;20048;-64
2022/04/09 09:41:48;;;;;;;0.00;0.00;;;4.70;99.90;;;;;;5020253;28;20439;-64
2022/04/09 09:44:16;;;;;;;0.00;0.00;;;4.80;99.90;;;;;;5023057;28;20041;-64
2022/04/09 09:46:42;;;;;;;0.00;0.00;;;4.90;99.90;;;;;;5021882;28;20396;-64
2022/04/09 09:49:08;;;;;;;0.00;0.00;;;5.40;99.90;;;;;;5021954;28;20164;-65
2022/04/09 09:51:35;;;;;;;0.00;0.00;;;5.90;99.90;;;;;;5023474;28;20045;-67
2022/04/09 09:54:08;;;;;;;0.00;0.00;;;6.20;99.90;;;;;;5022384;28;20045;-65
2022/04/09 09:56:41;;;;;;;0.00;0.00;;;6.70;99.90;;;;;;5023440;28;20382;-65
2022/04/09 09:59:09;;;;;;;0.00;0.00;;;7.10;99.90;;;;;;5023145;28;20113;-64
2022/04/09 10:01:40;;;;;;;0.00;0.00;;;7.40;99.90;;;;;;5020455;28;20044;-60
2022/04/09 10:04:07;;;;;;;0.00;0.00;;;7.80;99.90;;;;;;5019479;28;20042;-65
2022/04/09 10:06:34;;;;;;;0.00;0.00;;;8.10;99.90;;;;;;5022971;28;20049;-65
2022/04/09 10:09:05;;;;;;;0.00;0.00;;;8.10;99.90;;;;;;5021976;28;20050;-65
2022/04/09 10:11:37;;;;;;;0.00;0.00;;;9.70;99.90;;;;;;5021480;28;20053;-64
2022/04/09 10:14:04;;;;;;;0.00;0.00;;;9.00;99.90;;;;;;5023807;28;20041;-64
2022/04/09 10:16:43;;;;;;;0.00;0.00;;;9.20;99.90;;;;;;5042233;28;20494;-64
2022/04/09 10:19:11;;;;;;;0.00;0.00;;;9.20;99.90;;;;;;5040179;28;20040;-64
2022/04/09 10:21:40;;;;;;;0.00;0.00;;;8.50;99.90;;;;;;5042093;28;20045;-64
2022/04/09 10:24:14;;;;;;;0.00;0.00;;;7.20;99.90;;;;;;5041976;28;20049;-64
2022/04/09 10:26:41;;;;;;;;;;;6.90;99.90;;;;;;5042181;28;20051;-65
2022/04/09 10:29:08;;;;;;;0.00;0.00;;;6.70;99.90;;;;;;5040654;28;19921;-64
2022/04/09 10:31:35;;;;;;;0.00;0.00;;;6.30;99.90;;;;;;5040679;28;20043;-64
2022/04/09 10:34:03;;;;;;;0.00;0.00;;;6.10;99.90;;;;;;5041145;28;20052;-64
2022/04/09 10:36:41;;;;;;;0.00;0.00;;;6.20;99.90;;;;;;5041897;28;20123;-64
2022/04/09 10:39:22;;;;;;;0.00;0.00;;;6.60;99.90;;;;;;5039887;28;20049;-64
2022/04/09 10:41:54;;;;;;;0.00;0.00;;;6.80;99.90;;;;;;5040117;28;20119;-64
2022/04/09 10:44:44;;;;;;;0.10;0.10;;;7.10;99.90;;;;;;5041513;28;20057;-64
2022/04/09 10:47:15;;;;;;;0.00;0.00;;;7.40;99.90;;;;;;5041357;28;20036;-64
2022/04/09 10:50:05;;;;;;;0.00;0.00;;;8.80;99.90;;;;;;5040747;28;20045;-64
2022/04/09 10:52:32;;;;;;;0.00;0.00;;;8.10;99.90;;;;;;5042325;28;20053;-64
2022/04/09 10:55:10;;;;;;;0.00;0.00;;;8.50;99.90;;;;;;5041024;28;20029;-65
2022/04/09 10:57:47;;;;;;;0.00;0.00;;;8.80;99.90;;;;;;5040336;28;20064;-64
2022/04/09 11:00:33;;;;;;;0.00;0.00;;;8.80;99.90;;;;;;5041586;28;20091;-64
2022/04/09 11:03:10;;;;;;;0.00;0.00;;;9.10;99.90;;;;;;5030492;28;20041;-64
2022/04/09 11:05:39;;;;;;;0.00;0.00;;;9.20;99.90;;;;;;5039181;28;20473;-65
2022/04/09 11:08:08;;;;;;;0.00;0.00;;;9.10;99.90;;;;;;5039278;28;20089;-59
2022/04/09 11:10:34;;;;;;;0.00;0.00;;;9.10;99.90;;;;;;5041376;28;20088;-64
2022/04/09 11:13:01;;;;;;;0.00;0.00;;;9.10;99.90;;;;;;5041879;28;20045;-64
2022/04/09 11:15:29;;;;;;;0.00;0.00;;;9.10;99.90;;;;;;5040646;28;20072;-64
2022/04/09 11:18:01;;;;;;;0.00;0.00;;;9.00;99.90;;;;;;5040485;28;20679;-65
2022/04/09 11:20:31;;;;;;;0.00;0.00;;;8.90;99.90;;;;;;5041644;28;20036;-64
2022/04/09 11:22:56;;;;;;;0.00;0.00;;;9.40;99.90;;;;;;5040362;28;20084;-64
2022/04/09 11:25:27;;;;;;;0.00;0.00;;;9.30;99.90;;;;;;5041239;28;20328;-65
2022/04/09 11:28:07;;;;;;;0.00;0.00;;;9.10;99.90;;;;;;5039352;28;20539;-65
2022/04/09 11:30:33;;;;;;;0.00;0.00;;;9.40;99.90;;;;;;5041145;28;20431;-64
2022/04/09 11:32:59;;;;;;;0.00;0.00;;;9.50;99.90;;;;;;5040467;28;20033;-65
2022/04/09 11:35:25;;;;;;;0.00;0.00;;;9.50;99.90;;;;;;5041677;28;20045;-59
2022/04/09 11:37:51;;;;;;;0.00;0.00;;;9.70;99.90;;;;;;5040470;28;20044;-63
2022/04/09 11:40:19;;;;;;;0.00;0.00;;;10.00;99.90;;;;;;5041561;28;20076;-69
2022/04/09 11:42:53;;;;;;;0.00;0.00;;;10.00;99.90;;;;;;5040741;28;20085;-62
2022/04/09 11:45:31;;;;;;;0.00;0.00;;;10.10;99.90;;;;;;5041137;28;20044;-62
2022/04/09 11:47:58;;;;;;;0.03;0.03;;;10.00;99.90;;;;;;5039068;28;20059;-62
2022/04/09 11:50:28;;;;;;;0.00;0.00;;;10.20;99.90;;;;;;5041949;28;20151;-62
2022/04/09 11:52:54;;;;;;;0.00;0.00;;;10.20;99.90;;;;;;5040723;28;20033;-62
2022/04/09 11:55:20;;;;;;;0.00;0.00;;;9.80;99.90;;;;;;5041284;28;20048;-62
2022/04/09 11:57:51;;;;;;;0.00;0.00;;;9.60;99.90;;;;;;5041039;28;20060;-62
2022/04/09 12:00:19;;;;;;;0.00;0.00;;;10.40;99.90;;;;;;5040306;28;20387;-62
2022/04/09 12:02:44;;;;;;;0.00;0.00;;;10.70;99.90;;;;;;5030885;28;20045;-56
2022/04/09 12:05:12;;;;;;;0.00;0.00;;;11.10;99.90;;;;;;5021210;28;20044;-62
2022/04/09 12:07:44;;;;;;;0.00;0.00;;;11.00;99.90;;;;;;5021199;28;20049;-63
2022/04/09 12:10:27;;;;;;;0.00;0.00;;;10.80;99.90;;;;;;5019528;28;20073;-63
2022/04/09 12:13:02;;;;;;;0.00;0.00;;;10.60;99.90;;;;;;5018238;28;20038;-63
2022/04/09 12:15:33;;;;;;;0.00;0.00;;;10.60;99.90;;;;;;5018708;28;20053;-65
2022/04/09 12:18:00;;;;;;;0.00;0.00;;;10.00;99.90;;;;;;5021996;28;20050;-64
2022/04/09 12:20:43;;;;;;;0.00;0.00;;;10.10;99.90;;;;;;5043367;28;20040;-65
2022/04/09 12:23:09;;;;;;;0.00;0.00;;;9.80;99.90;;;;;;5036497;28;20114;-64
2022/04/09 12:25:40;;;;;;;0.00;0.00;;;9.60;99.90;;;;;;5043748;28;20049;-62
2022/04/09 12:28:22;;;;;;;0.00;0.00;;;9.60;99.90;;;;;;5043475;28;20136;-62
2022/04/09 12:30:49;;;;;;;0.00;0.00;;;9.50;99.90;;;;;;5043946;28;20048;-62
2022/04/09 12:33:15;;;;;;;0.00;0.00;;;9.40;99.90;;;;;;5043405;28;20501;-62
2022/04/09 12:35:41;;;;;;;0.00;0.00;;;9.30;99.90;;;;;;5043456;28;20045;-62
2022/04/09 12:38:07;;;;;;;0.00;0.00;;;9.00;99.90;;;;;;5026233;28;20041;-62
2022/04/09 12:40:33;;;;;;;0.03;0.03;;;8.50;99.90;;;;;;5044320;28;20532;-63
2022/04/09 12:43:00;;;;;;;0.00;0.00;;;8.50;99.90;;;;;;5042168;28;20136;-63
2022/04/09 12:45:27;;;;;;;0.00;0.00;;;8.30;99.90;;;;;;5024661;28;20135;-63
2022/04/09 12:48:02;;;;;;;0.00;0.00;;;8.20;99.90;;;;;;5042174;28;20044;-63
2022/04/09 12:50:35;;;;;;;0.00;0.00;;;8.10;99.90;;;;;;5042948;28;20148;-64
2022/04/09 12:53:02;;;;;;;0.00;0.00;;;8.30;99.90;;;;;;5041823;28;20152;-63
2022/04/09 12:55:30;;;;;;;0.00;0.00;;;8.80;99.90;;;;;;5043281;28;20045;-63
2022/04/09 12:57:57;;;;;;;0.00;0.00;;;9.10;99.90;;;;;;5042729;28;20048;-63
2022/04/09 13:00:24;;;;;;;0.00;0.00;;;9.30;99.90;;;;;;5041298;28;20136;-63